sensor_id;sensor_type;location;lat;lon;timestamp;temperature;humidity
20370;DHT22;10344;47.592;9.600;2022-11-15T00:00:52;6.50;99.90
20370;DHT22;10344;47.592;9.600;2022-11-15T00:03:23;6.50;99.90
20370;DHT22;10344;47.592;9.600;2022-11-15T00:05:49;6.50;99.90
20370;DHT22;10344;47.592;9.600;2022-11-15T00:08:15;6.50;99.90
20370;DHT22;10344;47.592;9.600;2022-11-15T00:10:41;6.40;99.90
20370;DHT22;10344;47.592;9.600;2022-11-15T00:13:11;6.50;99.90
20370;DHT22;10344;47.592;9.600;2022-11-15T00:15:40;6.50;99.90
20370;DHT22;10344;47.592;9.600;2022-11-15T00:18:12;6.40;99.90
20370;DHT22;10344;47.592;9.600;2022-11-15T00:20:40;6.40;99.90
20370;DHT22;10344;47.592;9.600;2022-11-15T00:23:06;6.30;99.90
20370;DHT22;10344;47.592;9.600;2022-11-15T00:25:32;6.30;99.90
20370;DHT22;10344;47.592;9.600;2022-11-15T00:27:59;6.30;99.90
20370;DHT22;10344;47.592;9.600;2022-11-15T00:30:28;6.30;99.90
20370;DHT22;10344;47.592;9.600;2022-11-15T00:32:54;6.20;99.90
20370;DHT22;10344;47.592;9.600;2022-11-15T00:35:20;6.20;99.90
20370;DHT22;10344;47.592;9.600;2022-11-15T00:37:45;6.10;99.90
20370;DHT22;10344;47.592;9.600;2022-11-15T00:40:12;6.10;99.90
20370;DHT22;10344;47.592;9.600;2022-11-15T00:42:39;6.00;99.90
20370;DHT22;10344;47.592;9.600;2022-11-15T00:45:05;6.10;99.90
20370;DHT22;10344;47.592;9.600;2022-11-15T00:47:30;6.00;99.90
20370;DHT22;10344;47.592;9.600;2022-11-15T00:49:56;6.00;99.90
20370;DHT22;10344;47.592;9.600;2022-11-15T00:52:22;5.90;99.90
20370;DHT22;10344;47.592;9.600;2022-11-15T00:54:47;5.90;99.90
20370;DHT22;10344;47.592;9.600;2022-11-15T00:57:15;5.90;99.90
20370;DHT22;10344;47.592;9.600;2022-11-15T00:59:43;5.90;99.90
20370;DHT22;10344;47.592;9.600;2022-11-15T01:02:09;5.90;99.90
20370;DHT22;10344;47.592;9.600;2022-11-15T01:04:34;5.90;99.90
20370;DHT22;10344;47.592;9.600;2022-11-15T01:07:00;5.80;99.90
20370;DHT22;10344;47.592;9.600;2022-11-15T01:09:26;5.80;99.90
20370;DHT22;10344;47.592;9.600;2022-11-15T01:11:52;5.80;99.90
20370;DHT22;10344;47.592;9.600;2022-11-15T01:14:17;5.80;99.90
20370;DHT22;10344;47.592;9.600;2022-11-15T01:16:45;5.70;99.90
20370;DHT22;10344;47.592;9.600;2022-11-15T01:19:11;5.60;99.90
20370;DHT22;10344;47.592;9.600;2022-11-15T01:21:36;5.70;99.90
20370;DHT22;10344;47.592;9.600;2022-11-15T01:24:05;5.70;99.90
20370;DHT22;10344;47.592;9.600;2022-11-15T01:26:33;5.80;99.90
20370;DHT22;10344;47.592;9.600;2022-11-15T01:28:58;5.80;99.90
20370;DHT22;10344;47.592;9.600;2022-11-15T01:31:24;5.90;99.90
20370;DHT22;10344;47.592;9.600;2022-11-15T01:33:52;5.80;99.90
20370;DHT22;10344;47.592;9.600;2022-11-15T01:36:22;5.90;99.90
20370;DHT22;10344;47.592;9.600;2022-11-15T01:38:57;5.90;99.90
20370;DHT22;10344;47.592;9.600;2022-11-15T01:41:31;6.00;99.90
20370;DHT22;10344;47.592;9.600;2022-11-15T01:47:29;6.10;99.90
20370;DHT22;10344;47.592;9.600;2022-11-15T01:50:06;6.10;99.90
20370;DHT22;10344;47.592;9.600;2022-11-15T01:52:34;6.20;99.90
20370;DHT22;10344;47.592;9.600;2022-11-15T01:57:33;6.30;99.90
20370;DHT22;10344;47.592;9.600;2022-11-15T02:00:00;6.30;99.90
20370;DHT22;10344;47.592;9.600;2022-11-15T02:02:31;6.50;99.90
20370;DHT22;10344;47.592;9.600;2022-11-15T02:04:59;6.50;99.90
20370;DHT22;10344;47.592;9.600;2022-11-15T02:07:27;6.60;99.90
20370;DHT22;10344;47.592;9.600;2022-11-15T02:09:53;6.70;99.90
20370;DHT22;10344;47.592;9.600;2022-11-15T02:12:22;6.70;99.90
20370;DHT22;10344;47.592;9.600;2022-11-15T02:14:53;6.80;99.90
20370;DHT22;10344;47.592;9.600;2022-11-15T02:20:28;6.80;99.90
20370;DHT22;10344;47.592;9.600;2022-11-15T02:25:57;6.70;99.90
20370;DHT22;10344;47.592;9.600;2022-11-15T02:31:20;6.60;99.90
20370;DHT22;10344;47.592;9.600;2022-11-15T02:36:59;6.60;99.90
20370;DHT22;10344;47.592;9.600;2022-11-15T02:39:57;6.60;99.90
20370;DHT22;10344;47.592;9.600;2022-11-15T02:42:28;6.70;99.90
20370;DHT22;10344;47.592;9.600;2022-11-15T02:45:21;6.70;99.90
20370;DHT22;10344;47.592;9.600;2022-11-15T02:47:50;6.70;99.90
20370;DHT22;10344;47.592;9.600;2022-11-15T02:50:20;6.70;99.90
20370;DHT22;10344;47.592;9.600;2022-11-15T02:52:48;6.80;99.90
20370;DHT22;10344;47.592;9.600;2022-11-15T03:00:31;6.90;99.90
20370;DHT22;10344;47.592;9.600;2022-11-15T03:16:32;7.10;99.90
20370;DHT22;10344;47.592;9.600;2022-11-15T03:19:06;7.10;99.90
20370;DHT22;10344;47.592;9.600;2022-11-15T03:21:33;7.10;99.90
20370;DHT22;10344;47.592;9.600;2022-11-15T03:24:03;7.10;99.90
20370;DHT22;10344;47.592;9.600;2022-11-15T03:26:35;7.10;99.90
20370;DHT22;10344;47.592;9.600;2022-11-15T03:29:24;7.20;99.90
20370;DHT22;10344;47.592;9.600;2022-11-15T03:31:56;7.30;99.90
20370;DHT22;10344;47.592;9.600;2022-11-15T03:34:39;7.30;99.90
20370;DHT22;10344;47.592;9.600;2022-11-15T03:37:05;7.30;99.90
20370;DHT22;10344;47.592;9.600;2022-11-15T03:39:32;7.30;99.90
20370;DHT22;10344;47.592;9.600;2022-11-15T03:42:30;7.20;99.90
20370;DHT22;10344;47.592;9.600;2022-11-15T03:45:02;7.20;99.90
20370;DHT22;10344;47.592;9.600;2022-11-15T03:47:35;7.20;99.90
20370;DHT22;10344;47.592;9.600;2022-11-15T03:50:12;7.10;99.90
20370;DHT22;10344;47.592;9.600;2022-11-15T03:52:43;7.10;99.90
20370;DHT22;10344;47.592;9.600;2022-11-15T03:55:13;7.00;99.90
20370;DHT22;10344;47.592;9.600;2022-11-15T03:57:39;7.00;99.90
20370;DHT22;10344;47.592;9.600;2022-11-15T04:00:05;7.00;99.90
20370;DHT22;10344;47.592;9.600;2022-11-15T04:02:31;7.10;99.90
20370;DHT22;10344;47.592;9.600;2022-11-15T04:04:56;7.10;99.90
20370;DHT22;10344;47.592;9.600;2022-11-15T04:07:24;7.20;99.90
20370;DHT22;10344;47.592;9.600;2022-11-15T04:09:54;7.20;99.90
20370;DHT22;10344;47.592;9.600;2022-11-15T04:12:30;7.30;99.90
20370;DHT22;10344;47.592;9.600;2022-11-15T04:15:10;7.30;99.90
20370;DHT22;10344;47.592;9.600;2022-11-15T04:20:14;7.30;99.90
20370;DHT22;10344;47.592;9.600;2022-11-15T04:23:00;7.30;99.90
20370;DHT22;10344;47.592;9.600;2022-11-15T04:25:45;7.30;99.90
20370;DHT22;10344;47.592;9.600;2022-11-15T04:28:15;7.30;99.90
20370;DHT22;10344;47.592;9.600;2022-11-15T04:30:41;7.40;99.90
20370;DHT22;10344;47.592;9.600;2022-11-15T04:33:06;7.40;99.90
20370;DHT22;10344;47.592;9.600;2022-11-15T04:35:34;7.40;99.90
20370;DHT22;10344;47.592;9.600;2022-11-15T04:38:04;7.50;99.90
20370;DHT22;10344;47.592;9.600;2022-11-15T04:40:32;7.60;99.90
20370;DHT22;10344;47.592;9.600;2022-11-15T04:43:00;7.60;99.90
20370;DHT22;10344;47.592;9.600;2022-11-15T04:45:26;7.60;99.90
20370;DHT22;10344;47.592;9.600;2022-11-15T04:47:52;7.60;99.90
20370;DHT22;10344;47.592;9.600;2022-11-15T04:50:20;7.60;99.90
20370;DHT22;10344;47.592;9.600;2022-11-15T04:52:53;7.60;99.90
20370;DHT22;10344;47.592;9.600;2022-11-15T04:55:23;7.50;99.90
20370;DHT22;10344;47.592;9.600;2022-11-15T04:57:57;7.50;99.90
20370;DHT22;10344;47.592;9.600;2022-11-15T05:00:27;7.60;99.90
20370;DHT22;10344;47.592;9.600;2022-11-15T05:02:53;7.50;99.90
20370;DHT22;10344;47.592;9.600;2022-11-15T05:05:38;7.50;99.90
20370;DHT22;10344;47.592;9.600;2022-11-15T05:08:07;7.50;99.90
20370;DHT22;10344;47.592;9.600;2022-11-15T05:10:33;7.40;99.90
20370;DHT22;10344;47.592;9.600;2022-11-15T05:12:59;7.40;99.90
20370;DHT22;10344;47.592;9.600;2022-11-15T05:15:26;7.30;99.90
20370;DHT22;10344;47.592;9.600;2022-11-15T05:17:58;7.30;99.90
20370;DHT22;10344;47.592;9.600;2022-11-15T05:20:26;7.30;99.90
20370;DHT22;10344;47.592;9.600;2022-11-15T05:22:53;7.30;99.90
20370;DHT22;10344;47.592;9.600;2022-11-15T05:25:22;7.20;99.90
20370;DHT22;10344;47.592;9.600;2022-11-15T05:27:52;7.30;99.90
20370;DHT22;10344;47.592;9.600;2022-11-15T05:30:20;7.30;99.90
20370;DHT22;10344;47.592;9.600;2022-11-15T05:32:48;7.40;99.90
20370;DHT22;10344;47.592;9.600;2022-11-15T05:35:37;7.40;99.90
20370;DHT22;10344;47.592;9.600;2022-11-15T05:38:04;7.40;99.90
20370;DHT22;10344;47.592;9.600;2022-11-15T05:40:30;7.50;99.90
20370;DHT22;10344;47.592;9.600;2022-11-15T05:42:56;7.40;99.90
20370;DHT22;10344;47.592;9.600;2022-11-15T05:45:23;7.40;99.90
20370;DHT22;10344;47.592;9.600;2022-11-15T05:47:49;7.40;99.90
20370;DHT22;10344;47.592;9.600;2022-11-15T05:50:16;7.50;99.90
20370;DHT22;10344;47.592;9.600;2022-11-15T05:52:46;7.50;99.90
20370;DHT22;10344;47.592;9.600;2022-11-15T05:55:12;7.50;99.90
20370;DHT22;10344;47.592;9.600;2022-11-15T05:57:41;7.40;99.90
20370;DHT22;10344;47.592;9.600;2022-11-15T06:00:07;7.40;99.90
20370;DHT22;10344;47.592;9.600;2022-11-15T06:02:35;7.30;99.90
20370;DHT22;10344;47.592;9.600;2022-11-15T06:05:01;7.20;99.90
20370;DHT22;10344;47.592;9.600;2022-11-15T06:07:28;7.10;99.90
20370;DHT22;10344;47.592;9.600;2022-11-15T06:09:54;7.00;99.90
20370;DHT22;10344;47.592;9.600;2022-11-15T06:12:19;6.90;99.90
20370;DHT22;10344;47.592;9.600;2022-11-15T06:14:45;6.80;99.90
20370;DHT22;10344;47.592;9.600;2022-11-15T06:17:13;6.70;99.90
20370;DHT22;10344;47.592;9.600;2022-11-15T06:19:38;6.70;99.90
20370;DHT22;10344;47.592;9.600;2022-11-15T06:22:08;6.60;99.90
20370;DHT22;10344;47.592;9.600;2022-11-15T06:24:34;6.60;99.90
20370;DHT22;10344;47.592;9.600;2022-11-15T06:27:00;6.70;99.90
20370;DHT22;10344;47.592;9.600;2022-11-15T06:29:26;6.70;99.90
20370;DHT22;10344;47.592;9.600;2022-11-15T06:31:51;6.70;99.90
20370;DHT22;10344;47.592;9.600;2022-11-15T06:34:18;6.70;99.90
20370;DHT22;10344;47.592;9.600;2022-11-15T06:36:43;6.70;99.90
20370;DHT22;10344;47.592;9.600;2022-11-15T06:39:11;6.70;99.90
20370;DHT22;10344;47.592;9.600;2022-11-15T06:41:37;6.70;99.90
20370;DHT22;10344;47.592;9.600;2022-11-15T06:44:05;6.70;99.90
20370;DHT22;10344;47.592;9.600;2022-11-15T06:46:30;6.80;99.90
20370;DHT22;10344;47.592;9.600;2022-11-15T06:48:56;6.80;99.90
20370;DHT22;10344;47.592;9.600;2022-11-15T06:51:21;6.80;99.90
20370;DHT22;10344;47.592;9.600;2022-11-15T06:53:47;6.80;99.90
20370;DHT22;10344;47.592;9.600;2022-11-15T06:56:15;6.80;99.90
20370;DHT22;10344;47.592;9.600;2022-11-15T06:58:40;6.80;99.90
20370;DHT22;10344;47.592;9.600;2022-11-15T07:01:09;6.90;99.90
20370;DHT22;10344;47.592;9.600;2022-11-15T07:03:37;6.90;99.90
20370;DHT22;10344;47.592;9.600;2022-11-15T07:26:45;7.10;99.90
20370;DHT22;10344;47.592;9.600;2022-11-15T07:29:11;7.20;99.90
20370;DHT22;10344;47.592;9.600;2022-11-15T07:31:39;7.30;99.90
20370;DHT22;10344;47.592;9.600;2022-11-15T07:34:05;7.40;99.90
20370;DHT22;10344;47.592;9.600;2022-11-15T07:36:30;7.50;99.90
20370;DHT22;10344;47.592;9.600;2022-11-15T07:38:57;7.50;99.90
20370;DHT22;10344;47.592;9.600;2022-11-15T07:51:51;10.50;99.90
20370;DHT22;10344;47.592;9.600;2022-11-15T07:54:18;11.50;99.90
20370;DHT22;10344;47.592;9.600;2022-11-15T07:56:43;12.40;99.90
20370;DHT22;10344;47.592;9.600;2022-11-15T07:59:13;13.30;99.90
20370;DHT22;10344;47.592;9.600;2022-11-15T08:01:39;14.00;99.90
20370;DHT22;10344;47.592;9.600;2022-11-15T08:04:04;14.40;99.90
20370;DHT22;10344;47.592;9.600;2022-11-15T08:06:30;13.90;99.90
20370;DHT22;10344;47.592;9.600;2022-11-15T08:08:55;13.30;99.90
20370;DHT22;10344;47.592;9.600;2022-11-15T08:11:26;13.20;99.90
20370;DHT22;10344;47.592;9.600;2022-11-15T08:13:54;13.80;99.90
20370;DHT22;10344;47.592;9.600;2022-11-15T08:16:19;14.30;99.90
20370;DHT22;10344;47.592;9.600;2022-11-15T08:18:45;14.80;99.90
20370;DHT22;10344;47.592;9.600;2022-11-15T08:21:14;15.30;99.90
20370;DHT22;10344;47.592;9.600;2022-11-15T08:23:45;15.60;99.90
20370;DHT22;10344;47.592;9.600;2022-11-15T08:26:11;15.70;99.90
20370;DHT22;10344;47.592;9.600;2022-11-15T08:28:36;15.50;99.90
20370;DHT22;10344;47.592;9.600;2022-11-15T08:31:03;15.10;99.90
20370;DHT22;10344;47.592;9.600;2022-11-15T08:33:29;14.90;99.90
20370;DHT22;10344;47.592;9.600;2022-11-15T08:35:59;14.50;99.90
20370;DHT22;10344;47.592;9.600;2022-11-15T08:38:28;14.40;99.90
20370;DHT22;10344;47.592;9.600;2022-11-15T08:41:02;14.20;99.90
20370;DHT22;10344;47.592;9.600;2022-11-15T08:43:31;13.80;99.90
20370;DHT22;10344;47.592;9.600;2022-11-15T08:46:00;13.90;99.90
20370;DHT22;10344;47.592;9.600;2022-11-15T08:48:26;13.70;99.90
20370;DHT22;10344;47.592;9.600;2022-11-15T08:50:55;13.60;99.90
20370;DHT22;10344;47.592;9.600;2022-11-15T08:53:21;13.80;99.90
20370;DHT22;10344;47.592;9.600;2022-11-15T08:55:47;14.00;99.90
20370;DHT22;10344;47.592;9.600;2022-11-15T08:58:13;14.00;99.90
20370;DHT22;10344;47.592;9.600;2022-11-15T09:00:39;14.30;99.90
20370;DHT22;10344;47.592;9.600;2022-11-15T09:03:06;14.60;99.90
20370;DHT22;10344;47.592;9.600;2022-11-15T09:05:32;14.70;99.90
20370;DHT22;10344;47.592;9.600;2022-11-15T09:07:58;14.70;99.90
20370;DHT22;10344;47.592;9.600;2022-11-15T09:10:24;14.70;99.90
20370;DHT22;10344;47.592;9.600;2022-11-15T09:12:50;14.50;99.90
20370;DHT22;10344;47.592;9.600;2022-11-15T09:15:16;14.80;99.90
20370;DHT22;10344;47.592;9.600;2022-11-15T09:17:42;14.80;99.90
20370;DHT22;10344;47.592;9.600;2022-11-15T09:20:08;14.80;99.90
20370;DHT22;10344;47.592;9.600;2022-11-15T09:22:34;14.80;99.90
20370;DHT22;10344;47.592;9.600;2022-11-15T09:25:02;14.80;99.90
20370;DHT22;10344;47.592;9.600;2022-11-15T09:27:33;15.00;99.90
20370;DHT22;10344;47.592;9.600;2022-11-15T09:29:59;14.80;99.90
20370;DHT22;10344;47.592;9.600;2022-11-15T09:32:28;14.60;99.90
20370;DHT22;10344;47.592;9.600;2022-11-15T09:34:55;14.60;99.90
20370;DHT22;10344;47.592;9.600;2022-11-15T09:37:21;14.60;99.90
20370;DHT22;10344;47.592;9.600;2022-11-15T09:39:47;14.60;99.90
20370;DHT22;10344;47.592;9.600;2022-11-15T09:45:31;14.80;99.90
20370;DHT22;10344;47.592;9.600;2022-11-15T09:51:32;14.40;99.90
20370;DHT22;10344;47.592;9.600;2022-11-15T09:56:41;14.70;99.90
20370;DHT22;10344;47.592;9.600;2022-11-15T10:04:51;15.10;99.90
20370;DHT22;10344;47.592;9.600;2022-11-15T10:07:49;15.40;99.90
20370;DHT22;10344;47.592;9.600;2022-11-15T10:13:36;15.70;99.90
20370;DHT22;10344;47.592;9.600;2022-11-15T10:18:58;15.20;99.90
20370;DHT22;10344;47.592;9.600;2022-11-15T10:21:40;15.70;99.90
20370;DHT22;10344;47.592;9.600;2022-11-15T10:24:13;16.10;99.90
20370;DHT22;10344;47.592;9.600;2022-11-15T10:26:47;16.20;99.90
20370;DHT22;10344;47.592;9.600;2022-11-15T10:29:21;16.10;99.90
20370;DHT22;10344;47.592;9.600;2022-11-15T10:31:47;16.20;99.90
20370;DHT22;10344;47.592;9.600;2022-11-15T10:34:16;15.90;99.90
20370;DHT22;10344;47.592;9.600;2022-11-15T10:36:53;15.30;99.90
20370;DHT22;10344;47.592;9.600;2022-11-15T10:39:21;14.90;99.90
20370;DHT22;10344;47.592;9.600;2022-11-15T10:41:48;14.40;99.90
20370;DHT22;10344;47.592;9.600;2022-11-15T10:47:06;14.20;99.90
20370;DHT22;10344;47.592;9.600;2022-11-15T10:49:33;14.10;99.90
20370;DHT22;10344;47.592;9.600;2022-11-15T10:52:34;14.10;99.90
20370;DHT22;10344;47.592;9.600;2022-11-15T10:55:27;13.80;99.90
20370;DHT22;10344;47.592;9.600;2022-11-15T10:58:19;13.50;99.90
20370;DHT22;10344;47.592;9.600;2022-11-15T11:01:25;13.10;99.90
20370;DHT22;10344;47.592;9.600;2022-11-15T11:04:07;12.70;99.90
20370;DHT22;10344;47.592;9.600;2022-11-15T11:06:53;12.40;99.90
20370;DHT22;10344;47.592;9.600;2022-11-15T11:09:39;12.10;99.90
20370;DHT22;10344;47.592;9.600;2022-11-15T11:12:13;12.00;99.90
20370;DHT22;10344;47.592;9.600;2022-11-15T11:14:50;11.80;99.90
20370;DHT22;10344;47.592;9.600;2022-11-15T11:21:04;11.50;99.90
20370;DHT22;10344;47.592;9.600;2022-11-15T11:23:54;11.50;99.90
20370;DHT22;10344;47.592;9.600;2022-11-15T11:41:16;11.00;99.90
20370;DHT22;10344;47.592;9.600;2022-11-15T11:47:09;11.10;99.90
20370;DHT22;10344;47.592;9.600;2022-11-15T11:50:29;11.20;99.90
20370;DHT22;10344;47.592;9.600;2022-11-15T11:53:22;11.30;99.90
20370;DHT22;10344;47.592;9.600;2022-11-15T11:56:03;11.30;99.90
20370;DHT22;10344;47.592;9.600;2022-11-15T11:58:44;11.30;99.90
20370;DHT22;10344;47.592;9.600;2022-11-15T12:01:39;11.20;99.90
20370;DHT22;10344;47.592;9.600;2022-11-15T12:04:44;11.30;99.90
20370;DHT22;10344;47.592;9.600;2022-11-15T12:07:32;11.50;99.90
20370;DHT22;10344;47.592;9.600;2022-11-15T12:10:25;11.40;99.90
20370;DHT22;10344;47.592;9.600;2022-11-15T12:13:10;11.40;99.90
20370;DHT22;10344;47.592;9.600;2022-11-15T12:15:56;11.50;99.90
20370;DHT22;10344;47.592;9.600;2022-11-15T12:18:29;11.60;99.90
20370;DHT22;10344;47.592;9.600;2022-11-15T12:20:59;11.60;99.90
20370;DHT22;10344;47.592;9.600;2022-11-15T12:23:48;11.50;99.90
20370;DHT22;10344;47.592;9.600;2022-11-15T12:26:23;11.30;99.90
20370;DHT22;10344;47.592;9.600;2022-11-15T12:29:03;11.20;99.90
20370;DHT22;10344;47.592;9.600;2022-11-15T12:32:00;11.10;99.90
20370;DHT22;10344;47.592;9.600;2022-11-15T12:34:49;11.00;99.90
20370;DHT22;10344;47.592;9.600;2022-11-15T12:37:33;10.90;99.90
20370;DHT22;10344;47.592;9.600;2022-11-15T12:40:30;10.80;99.90
20370;DHT22;10344;47.592;9.600;2022-11-15T12:43:34;10.60;99.90
20370;DHT22;10344;47.592;9.600;2022-11-15T12:46:02;10.60;99.90
20370;DHT22;10344;47.592;9.600;2022-11-15T12:51:05;10.40;99.90
20370;DHT22;10344;47.592;9.600;2022-11-15T12:53:33;10.40;99.90
20370;DHT22;10344;47.592;9.600;2022-11-15T12:58:53;10.40;99.90
20370;DHT22;10344;47.592;9.600;2022-11-15T13:12:02;10.60;99.90
20370;DHT22;10344;47.592;9.600;2022-11-15T13:14:50;10.80;99.90
20370;DHT22;10344;47.592;9.600;2022-11-15T13:17:33;10.80;99.90
20370;DHT22;10344;47.592;9.600;2022-11-15T13:33:57;10.90;99.90
20370;DHT22;10344;47.592;9.600;2022-11-15T13:36:32;10.90;99.90
20370;DHT22;10344;47.592;9.600;2022-11-15T13:39:29;10.90;99.90
20370;DHT22;10344;47.592;9.600;2022-11-15T13:42:00;10.80;99.90
20370;DHT22;10344;47.592;9.600;2022-11-15T13:44:31;10.90;99.90
20370;DHT22;10344;47.592;9.600;2022-11-15T13:47:13;10.90;99.90
20370;DHT22;10344;47.592;9.600;2022-11-15T13:49:39;11.00;99.90
20370;DHT22;10344;47.592;9.600;2022-11-15T13:52:07;11.10;99.90
20370;DHT22;10344;47.592;9.600;2022-11-15T13:55:04;11.10;99.90
20370;DHT22;10344;47.592;9.600;2022-11-15T13:57:41;11.10;99.90
20370;DHT22;10344;47.592;9.600;2022-11-15T14:02:54;11.20;99.90
20370;DHT22;10344;47.592;9.600;2022-11-15T14:05:25;11.20;99.90
20370;DHT22;10344;47.592;9.600;2022-11-15T14:07:57;11.20;99.90
20370;DHT22;10344;47.592;9.600;2022-11-15T14:10:35;11.20;99.90
20370;DHT22;10344;47.592;9.600;2022-11-15T14:13:10;11.20;99.90
20370;DHT22;10344;47.592;9.600;2022-11-15T14:16:20;11.20;99.90
20370;DHT22;10344;47.592;9.600;2022-11-15T14:19:12;11.20;99.90
20370;DHT22;10344;47.592;9.600;2022-11-15T14:22:17;11.20;99.90
20370;DHT22;10344;47.592;9.600;2022-11-15T14:31:12;11.40;99.90
20370;DHT22;10344;47.592;9.600;2022-11-15T14:33:38;11.30;99.90
20370;DHT22;10344;47.592;9.600;2022-11-15T14:36:15;11.30;99.90
20370;DHT22;10344;47.592;9.600;2022-11-15T14:38:44;11.30;99.90
20370;DHT22;10344;47.592;9.600;2022-11-15T14:41:36;11.30;99.90
20370;DHT22;10344;47.592;9.600;2022-11-15T14:44:06;11.30;99.90
20370;DHT22;10344;47.592;9.600;2022-11-15T14:46:33;11.30;99.90
20370;DHT22;10344;47.592;9.600;2022-11-15T14:49:01;11.30;99.90
20370;DHT22;10344;47.592;9.600;2022-11-15T14:51:28;11.20;99.90
20370;DHT22;10344;47.592;9.600;2022-11-15T14:53:56;11.20;99.90
20370;DHT22;10344;47.592;9.600;2022-11-15T14:56:22;11.20;99.90
20370;DHT22;10344;47.592;9.600;2022-11-15T14:58:49;11.10;99.90
20370;DHT22;10344;47.592;9.600;2022-11-15T15:01:38;11.10;99.90
20370;DHT22;10344;47.592;9.600;2022-11-15T15:04:05;11.10;99.90
20370;DHT22;10344;47.592;9.600;2022-11-15T15:06:39;11.10;99.90
20370;DHT22;10344;47.592;9.600;2022-11-15T15:09:32;11.10;99.90
20370;DHT22;10344;47.592;9.600;2022-11-15T15:12:29;11.20;99.90
20370;DHT22;10344;47.592;9.600;2022-11-15T15:15:12;11.10;99.90
20370;DHT22;10344;47.592;9.600;2022-11-15T15:17:38;11.10;99.90
20370;DHT22;10344;47.592;9.600;2022-11-15T15:20:12;11.10;99.90
20370;DHT22;10344;47.592;9.600;2022-11-15T15:22:45;11.00;99.90
20370;DHT22;10344;47.592;9.600;2022-11-15T15:25:22;10.80;99.90
20370;DHT22;10344;47.592;9.600;2022-11-15T15:27:48;10.80;99.90
20370;DHT22;10344;47.592;9.600;2022-11-15T15:30:14;10.80;99.90
20370;DHT22;10344;47.592;9.600;2022-11-15T15:32:40;10.70;99.90
20370;DHT22;10344;47.592;9.600;2022-11-15T15:35:07;10.70;99.90
20370;DHT22;10344;47.592;9.600;2022-11-15T15:37:38;10.70;99.90
20370;DHT22;10344;47.592;9.600;2022-11-15T15:40:13;10.60;99.90
20370;DHT22;10344;47.592;9.600;2022-11-15T15:42:45;10.60;99.90
20370;DHT22;10344;47.592;9.600;2022-11-15T15:45:17;10.60;99.90
20370;DHT22;10344;47.592;9.600;2022-11-15T15:47:44;10.70;99.90
20370;DHT22;10344;47.592;9.600;2022-11-15T15:52:50;10.70;99.90
20370;DHT22;10344;47.592;9.600;2022-11-15T15:55:24;10.60;99.90
20370;DHT22;10344;47.592;9.600;2022-11-15T15:57:52;10.50;99.90
20370;DHT22;10344;47.592;9.600;2022-11-15T16:00:21;10.50;99.90
20370;DHT22;10344;47.592;9.600;2022-11-15T16:02:48;10.40;99.90
20370;DHT22;10344;47.592;9.600;2022-11-15T16:05:16;10.40;99.90
20370;DHT22;10344;47.592;9.600;2022-11-15T16:07:44;10.30;99.90
20370;DHT22;10344;47.592;9.600;2022-11-15T16:10:30;10.20;99.90
20370;DHT22;10344;47.592;9.600;2022-11-15T16:13:21;10.20;99.90
20370;DHT22;10344;47.592;9.600;2022-11-15T16:15:50;10.20;99.90
20370;DHT22;10344;47.592;9.600;2022-11-15T16:18:18;10.30;99.90
20370;DHT22;10344;47.592;9.600;2022-11-15T16:20:48;10.20;99.90
20370;DHT22;10344;47.592;9.600;2022-11-15T16:23:20;10.20;99.90
20370;DHT22;10344;47.592;9.600;2022-11-15T16:25:53;10.10;99.90
20370;DHT22;10344;47.592;9.600;2022-11-15T16:28:34;10.20;99.90
20370;DHT22;10344;47.592;9.600;2022-11-15T16:31:03;10.20;99.90
20370;DHT22;10344;47.592;9.600;2022-11-15T16:33:31;10.20;99.90
20370;DHT22;10344;47.592;9.600;2022-11-15T16:36:23;10.20;99.90
20370;DHT22;10344;47.592;9.600;2022-11-15T16:39:00;10.20;99.90
20370;DHT22;10344;47.592;9.600;2022-11-15T16:41:31;10.20;99.90
20370;DHT22;10344;47.592;9.600;2022-11-15T16:43:57;10.30;99.90
20370;DHT22;10344;47.592;9.600;2022-11-15T16:46:28;10.30;99.90
20370;DHT22;10344;47.592;9.600;2022-11-15T16:48:58;10.40;99.90
20370;DHT22;10344;47.592;9.600;2022-11-15T16:51:26;10.50;99.90
20370;DHT22;10344;47.592;9.600;2022-11-15T16:53:58;10.60;99.90
20370;DHT22;10344;47.592;9.600;2022-11-15T16:56:31;10.60;99.90
20370;DHT22;10344;47.592;9.600;2022-11-15T16:59:31;10.60;99.90
20370;DHT22;10344;47.592;9.600;2022-11-15T17:02:15;10.50;99.90
20370;DHT22;10344;47.592;9.600;2022-11-15T17:04:57;10.50;99.90
20370;DHT22;10344;47.592;9.600;2022-11-15T17:08:13;10.50;99.90
20370;DHT22;10344;47.592;9.600;2022-11-15T17:10:51;10.60;99.90
20370;DHT22;10344;47.592;9.600;2022-11-15T17:13:40;10.60;99.90
20370;DHT22;10344;47.592;9.600;2022-11-15T17:16:34;10.60;99.90
20370;DHT22;10344;47.592;9.600;2022-11-15T17:19:05;10.60;99.90
20370;DHT22;10344;47.592;9.600;2022-11-15T17:21:57;10.60;99.90
20370;DHT22;10344;47.592;9.600;2022-11-15T17:24:35;10.60;99.90
20370;DHT22;10344;47.592;9.600;2022-11-15T17:27:10;10.60;99.90
20370;DHT22;10344;47.592;9.600;2022-11-15T17:30:04;10.60;99.90
20370;DHT22;10344;47.592;9.600;2022-11-15T17:33:11;10.70;99.90
20370;DHT22;10344;47.592;9.600;2022-11-15T17:35:58;10.70;99.90
20370;DHT22;10344;47.592;9.600;2022-11-15T17:38:26;10.60;99.90
20370;DHT22;10344;47.592;9.600;2022-11-15T20:06:43;10.70;99.90
20370;DHT22;10344;47.592;9.600;2022-11-15T20:10:16;10.60;99.90
20370;DHT22;10344;47.592;9.600;2022-11-15T20:14:08;10.50;99.90
20370;DHT22;10344;47.592;9.600;2022-11-15T20:27:19;10.40;99.90
20370;DHT22;10344;47.592;9.600;2022-11-15T20:30:50;10.30;99.90
20370;DHT22;10344;47.592;9.600;2022-11-15T20:34:03;10.20;99.90
20370;DHT22;10344;47.592;9.600;2022-11-15T20:37:38;10.30;99.90
